M I D A S
Marine Information and Data Acquisition System
Tripno 1205 of the Zeeleeuw from 2007-01-24 08:53:16 to 2007-01-24 15:26:34
Back to CruiseResearch ActivitiesStationsMapUnderway DataData graphs

EquipmentUnitsComment
TimeDGPSUTC
LatitudeDGPSDM.mWGS84
LongitudeDGPSDM.mWGS84
HeadingGyrodeg 
SOGDGPSknotsSpeed over ground
COGDGPSdegCourse over ground
DepthEcho soundermeters200 kHz
Missing or incorrect values are displayed as -999
Navigation data collected by the RV Zeeleeuw from 2007-01-24 08:08:57 to 2007-01-24 15:40:08
                                                                                    Next 1000 lines
Time Latitude Longitude Heading SOG COG Depth
2007-01-24 08:09:07 51°13.599 2°56.094 127.3 0.2 359 6.4
2007-01-24 08:09:12 51°13.599 2°56.094 127.3 0.1 335 6.4
2007-01-24 08:09:17 51°13.599 2°56.093 127.3 -999 297 6.4
2007-01-24 08:09:21 51°13.599 2°56.093 127.3 -999 221 6.5
2007-01-24 08:09:27 51°13.599 2°56.095 127.3 -999 78 6.7
2007-01-24 08:09:32 51°13.599 2°56.095 127.3 -999 109 6.5
2007-01-24 08:09:37 51°13.599 2°56.094 127.3 -999 75 6.5
2007-01-24 08:09:42 51°13.599 2°56.095 127.3 -999 76 6.5
2007-01-24 08:09:47 51°13.599 2°56.093 127.3 -999 88 6.7
2007-01-24 08:09:52 51°13.598 2°56.092 127.3 -999 111 6.4
2007-01-24 08:09:57 51°13.598 2°56.091 127.3 -999 203 6.4
2007-01-24 08:10:02 51°13.598 2°56.09 127.3 -999 19 6.4
2007-01-24 08:10:06 51°13.598 2°56.09 127.3 -999 227 6.4
2007-01-24 08:10:12 51°13.598 2°56.09 127.3 -999 215 6.4
2007-01-24 08:10:17 51°13.598 2°56.091 127.3 -999 31 6.4
2007-01-24 08:10:22 51°13.598 2°56.091 127.3 -999 222 6.4
2007-01-24 08:10:26 51°13.599 2°56.091 127.3 -999 202 6.4
2007-01-24 08:10:32 51°13.599 2°56.092 127.2 -999 105 6.4
2007-01-24 08:10:37 51°13.599 2°56.094 127.2 -999 75 6.4
2007-01-24 08:10:42 51°13.599 2°56.093 127.2 -999 78 6.4
2007-01-24 08:10:47 51°13.599 2°56.092 127.2 -999 77 6.4
2007-01-24 08:10:52 51°13.598 2°56.09 127.2 -999 77 6.4
2007-01-24 08:10:56 51°13.598 2°56.088 127.2 -999 62 6.4
2007-01-24 08:11:02 51°13.598 2°56.086 127.2 -999 215 6.4
2007-01-24 08:11:07 51°13.598 2°56.086 127.2 -999 151 6.4
2007-01-24 08:11:12 51°13.598 2°56.087 127.2 -999 162 6.4
2007-01-24 08:11:16 51°13.598 2°56.088 127.2 -999 206 6.5
2007-01-24 08:11:22 51°13.598 2°56.088 127.2 -999 218 6.4
2007-01-24 08:11:27 51°13.598 2°56.089 127.1 -999 116 6.5
2007-01-24 08:11:32 51°13.598 2°56.09 127.1 -999 155 6.4
2007-01-24 08:11:36 51°13.598 2°56.09 127.1 -999 265 6.4
2007-01-24 08:11:41 51°13.598 2°56.091 127.1 -999 221 6.4
2007-01-24 08:11:47 51°13.599 2°56.092 127.1 -999 68 6.4
2007-01-24 08:11:52 51°13.599 2°56.095 127.1 -999 103 6.3
2007-01-24 08:11:57 51°13.599 2°56.096 127.1 -999 80 6.4
2007-01-24 08:12:01 51°13.599 2°56.096 127.1 -999 141 6.4
2007-01-24 08:12:07 51°13.599 2°56.095 127.1 -999 184 6.4
2007-01-24 08:12:12 51°13.599 2°56.093 127.1 -999 201 6.4
2007-01-24 08:12:17 51°13.598 2°56.091 127.1 -999 151 6.4
2007-01-24 08:12:22 51°13.598 2°56.091 127.1 -999 233 6.4
2007-01-24 08:12:26 51°13.598 2°56.091 127.1 -999 178 6.4
2007-01-24 08:12:32 51°13.598 2°56.091 127.1 -999 189 6.4
2007-01-24 08:12:37 51°13.598 2°56.092 127.1 -999 241 6.4
2007-01-24 08:12:41 51°13.598 2°56.092 127.1 -999 206 6.4
2007-01-24 08:12:46 51°13.598 2°56.092 127.1 -999 163 6.4
2007-01-24 08:12:51 51°13.598 2°56.092 127.1 -999 103 6.4
2007-01-24 08:12:56 51°13.598 2°56.092 127.1 -999 188 6.4
2007-01-24 08:13:01 51°13.598 2°56.092 127.1 -999 177 6.4
2007-01-24 08:13:07 51°13.598 2°56.092 127.1 -999 147 6.4
2007-01-24 08:13:12 51°13.598 2°56.093 127.1 -999 145 6.4
2007-01-24 08:13:17 51°13.598 2°56.093 127.1 -999 170 6.4
2007-01-24 08:13:22 51°13.598 2°56.093 127.1 -999 89 6.4
2007-01-24 08:13:27 51°13.598 2°56.093 127.1 -999 182 6.4
2007-01-24 08:13:32 51°13.598 2°56.093 127.1 -999 189 6.4
2007-01-24 08:13:37 51°13.598 2°56.093 127.1 -999 21 6.4
2007-01-24 08:13:42 51°13.598 2°56.093 127.1 -999 165 6.4
2007-01-24 08:13:47 51°13.598 2°56.093 127.1 -999 219 6.4
2007-01-24 08:13:52 51°13.598 2°56.093 127.1 -999 245 6.4
2007-01-24 08:13:57 51°13.598 2°56.093 127.1 -999 165 6.3
2007-01-24 08:14:02 51°13.598 2°56.093 127.1 -999 275 6.4
2007-01-24 08:14:07 51°13.598 2°56.093 127.1 -999 196 6.4
2007-01-24 08:14:12 51°13.597 2°56.093 127.1 -999 181 6.4
2007-01-24 08:14:17 51°13.597 2°56.092 127.1 -999 153 6.4
2007-01-24 08:14:21 51°13.597 2°56.092 127.1 -999 153 6.6
2007-01-24 08:14:26 51°13.597 2°56.092 127.1 -999 72 6.3
2007-01-24 08:14:32 51°13.597 2°56.092 127.1 -999 356 6.4
2007-01-24 08:14:37 51°13.598 2°56.092 127.1 -999 1 6.3
2007-01-24 08:14:42 51°13.598 2°56.092 127.1 -999 358 6.4
2007-01-24 08:14:46 51°13.598 2°56.092 127.1 -999 319 6.6
2007-01-24 08:14:52 51°13.597 2°56.092 127.1 -999 190 6.4
2007-01-24 08:14:57 51°13.597 2°56.093 127.1 -999 -999 6.4
2007-01-24 08:15:02 51°13.597 2°56.093 127.1 -999 297 6.4
2007-01-24 08:15:07 51°13.597 2°56.093 127.1 -999 68 6.6
2007-01-24 08:15:11 51°13.597 2°56.093 127.1 -999 40 6.4
2007-01-24 08:15:17 51°13.597 2°56.093 127.1 0.1 116 6.4
2007-01-24 08:15:22 51°13.598 2°56.093 127.1 -999 142 6.3
2007-01-24 08:15:26 51°13.598 2°56.093 127.1 -999 171 6.4
2007-01-24 08:15:31 51°13.598 2°56.093 127.1 -999 174 6.4
2007-01-24 08:15:37 51°13.598 2°56.093 127.1 -999 310 6.3
2007-01-24 08:15:42 51°13.598 2°56.093 127.1 -999 239 6.3
2007-01-24 08:15:47 51°13.598 2°56.093 127.1 -999 142 6.6
2007-01-24 08:15:51 51°13.598 2°56.093 127.1 -999 172 6.3
2007-01-24 08:15:57 51°13.598 2°56.094 127.1 -999 23 6.4
2007-01-24 08:16:02 51°13.598 2°56.094 127.1 -999 305 6.5
2007-01-24 08:16:07 51°13.598 2°56.095 127.1 -999 123 6.6
2007-01-24 08:16:12 51°13.597 2°56.095 127.1 -999 2 6.4
2007-01-24 08:16:17 51°13.597 2°56.094 127.1 -999 341 6.3
2007-01-24 08:16:21 51°13.597 2°56.094 127.1 -999 97 6.6
2007-01-24 08:16:27 51°13.597 2°56.094 127.1 -999 120 6.3
2007-01-24 08:16:32 51°13.598 2°56.094 127.1 -999 140 6.3
2007-01-24 08:16:37 51°13.597 2°56.095 127.1 -999 345 6.3
2007-01-24 08:16:41 51°13.597 2°56.095 127.1 -999 163 6.3
2007-01-24 08:16:46 51°13.597 2°56.096 127.1 -999 355 6.5
2007-01-24 08:16:52 51°13.596 2°56.096 127.1 -999 122 6.5
2007-01-24 08:16:57 51°13.596 2°56.097 127.1 -999 301 6.6
2007-01-24 08:17:02 51°13.596 2°56.097 127.1 -999 331 6.5
2007-01-24 08:17:06 51°13.596 2°56.097 127.1 -999 11 6.4
2007-01-24 08:17:11 51°13.596 2°56.097 127 -999 113 6.4
2007-01-24 08:17:17 51°13.596 2°56.097 127 -999 341 6.4
2007-01-24 08:17:22 51°13.596 2°56.097 127 -999 3 6.4
2007-01-24 08:17:27 51°13.596 2°56.098 127 -999 150 6.4
2007-01-24 08:17:31 51°13.596 2°56.098 127 -999 151 6.4
2007-01-24 08:17:37 51°13.596 2°56.098 127 -999 100 6.3
2007-01-24 08:17:42 51°13.596 2°56.097 127 -999 339 6.6
2007-01-24 08:17:47 51°13.596 2°56.097 127 0.1 321 6.4
2007-01-24 08:17:51 51°13.597 2°56.097 127 -999 355 6.4
2007-01-24 08:17:57 51°13.597 2°56.097 127 -999 325 6.3
2007-01-24 08:18:02 51°13.597 2°56.097 127 -999 310 6.4
2007-01-24 08:18:07 51°13.597 2°56.097 127 -999 103 6.4
2007-01-24 08:18:12 51°13.597 2°56.097 127 -999 239 6.4
2007-01-24 08:18:17 51°13.597 2°56.097 127 -999 336 6.5
2007-01-24 08:18:21 51°13.597 2°56.097 127 -999 352 6.4
2007-01-24 08:18:27 51°13.597 2°56.097 127 -999 155 6.3
2007-01-24 08:18:31 51°13.597 2°56.097 127 -999 168 6.3
2007-01-24 08:18:37 51°13.597 2°56.097 127 -999 321 6.3
2007-01-24 08:18:42 51°13.598 2°56.094 127 -999 298 6.3
2007-01-24 08:18:47 51°13.598 2°56.093 127 -999 91 6.3
2007-01-24 08:18:52 51°13.599 2°56.093 127 -999 169 6.3
2007-01-24 08:18:57 51°13.599 2°56.093 127 -999 341 6.3
2007-01-24 08:19:01 51°13.599 2°56.093 127 -999 342 6.3
2007-01-24 08:19:07 51°13.599 2°56.093 127 0.1 330 6.3
2007-01-24 08:19:12 51°13.599 2°56.092 127 -999 156 6.3
2007-01-24 08:19:17 51°13.599 2°56.092 127 -999 149 6.3
2007-01-24 08:19:22 51°13.599 2°56.092 127 -999 220 6.3
2007-01-24 08:19:26 51°13.599 2°56.093 127 -999 353 6.3
2007-01-24 08:19:32 51°13.599 2°56.093 127 -999 306 6.3
2007-01-24 08:19:37 51°13.599 2°56.093 127 -999 331 6.3
2007-01-24 08:19:42 51°13.599 2°56.093 127 -999 304 6.3
2007-01-24 08:19:47 51°13.599 2°56.093 127 -999 160 6.3
2007-01-24 08:19:51 51°13.599 2°56.093 127 -999 285 6.3
2007-01-24 08:19:57 51°13.6 2°56.092 127 0.1 335 6.3
2007-01-24 08:20:02 51°13.6 2°56.092 127 -999 343 6.3
2007-01-24 08:20:07 51°13.6 2°56.093 127 -999 342 4.6
2007-01-24 08:20:11 51°13.6 2°56.093 127 -999 9 6.3
2007-01-24 08:20:17 51°13.599 2°56.093 127 -999 137 6.3
2007-01-24 08:20:22 51°13.599 2°56.093 127 -999 177 6.3
2007-01-24 08:20:27 51°13.6 2°56.093 127 -999 161 6.3
2007-01-24 08:20:32 51°13.6 2°56.094 127 -999 39 6.3
2007-01-24 08:20:37 51°13.6 2°56.095 127 -999 157 6.3
2007-01-24 08:20:42 51°13.6 2°56.094 127 -999 151 6.3
2007-01-24 08:20:47 51°13.6 2°56.093 127 -999 7 6.3
2007-01-24 08:20:52 51°13.6 2°56.092 127 -999 137 6.3
2007-01-24 08:20:57 51°13.6 2°56.093 127 -999 136 6.3
2007-01-24 08:21:02 51°13.6 2°56.094 127 -999 316 6.3
2007-01-24 08:21:07 51°13.6 2°56.094 127 -999 357 6.3
2007-01-24 08:21:12 51°13.599 2°56.094 127 -999 13 6.2
2007-01-24 08:21:17 51°13.599 2°56.094 127 -999 201 6.2
2007-01-24 08:21:22 51°13.599 2°56.094 126.9 -999 183 6.2
2007-01-24 08:21:26 51°13.599 2°56.095 126.9 -999 166 6.2
2007-01-24 08:21:32 51°13.599 2°56.094 126.9 -999 152 6.2
2007-01-24 08:21:37 51°13.599 2°56.092 126.9 -999 332 6.2
2007-01-24 08:21:42 51°13.599 2°56.092 126.9 -999 103 6.2
2007-01-24 08:21:46 51°13.599 2°56.093 126.9 -999 3 6.2
2007-01-24 08:21:52 51°13.599 2°56.092 126.9 -999 122 6.2
2007-01-24 08:21:57 51°13.6 2°56.091 126.9 -999 165 6.2
2007-01-24 08:22:02 51°13.6 2°56.091 126.9 -999 283 6.2
2007-01-24 08:22:06 51°13.6 2°56.091 126.9 -999 327 6.2
2007-01-24 08:22:11 51°13.601 2°56.091 126.9 -999 327 6.2
2007-01-24 08:22:17 51°13.601 2°56.091 126.9 -999 303 6.2
2007-01-24 08:22:22 51°13.601 2°56.091 126.9 -999 166 6.2
2007-01-24 08:22:27 51°13.601 2°56.091 126.9 -999 341 6.2
2007-01-24 08:22:31 51°13.601 2°56.091 126.9 -999 316 6.2
2007-01-24 08:22:37 51°13.601 2°56.091 126.9 -999 342 6.2
2007-01-24 08:22:42 51°13.601 2°56.09 126.9 -999 323 6.2
2007-01-24 08:22:47 51°13.601 2°56.091 126.9 -999 336 6.2
2007-01-24 08:22:52 51°13.601 2°56.091 126.9 -999 276 6.2
2007-01-24 08:22:57 51°13.601 2°56.091 126.9 -999 9 6.2
2007-01-24 08:23:01 51°13.601 2°56.091 126.9 -999 261 6.2
2007-01-24 08:23:07 51°13.6 2°56.092 126.9 -999 206 6.2
2007-01-24 08:23:12 51°13.6 2°56.092 126.9 -999 208 6.2
2007-01-24 08:23:17 51°13.601 2°56.091 126.9 -999 208 6.2
2007-01-24 08:23:21 51°13.601 2°56.091 126.9 -999 167 6.2
2007-01-24 08:23:27 51°13.601 2°56.091 126.9 -999 160 6.2
2007-01-24 08:23:32 51°13.601 2°56.091 126.9 -999 33 6.2
2007-01-24 08:23:37 51°13.601 2°56.091 126.9 -999 306 6.2
2007-01-24 08:23:42 51°13.601 2°56.091 126.9 -999 319 6.2
2007-01-24 08:23:46 51°13.601 2°56.091 126.9 -999 153 6.2
2007-01-24 08:23:52 51°13.601 2°56.091 126.9 -999 157 6.2
2007-01-24 08:23:57 51°13.6 2°56.095 126.9 -999 193 6.2
2007-01-24 08:24:02 51°13.599 2°56.096 126.9 -999 143 6.2
2007-01-24 08:24:07 51°13.598 2°56.097 126.9 -999 334 -999
2007-01-24 08:24:11 51°13.598 2°56.097 126.9 -999 349 6.2
2007-01-24 08:24:17 51°13.597 2°56.098 126.9 -999 325 6.2
2007-01-24 08:24:22 51°13.598 2°56.095 126.9 -999 342 6.2
2007-01-24 08:24:27 51°13.599 2°56.093 126.9 -999 38 6.2
2007-01-24 08:24:31 51°13.6 2°56.092 126.9 -999 167 6.2
2007-01-24 08:24:37 51°13.601 2°56.091 126.9 -999 181 6.2
2007-01-24 08:24:42 51°13.601 2°56.091 126.9 -999 154 6.2
2007-01-24 08:24:47 51°13.601 2°56.092 126.9 -999 209 -999
2007-01-24 08:24:52 51°13.601 2°56.092 126.9 -999 332 -999
2007-01-24 08:24:57 51°13.601 2°56.092 126.9 -999 313 6.2
2007-01-24 08:25:02 51°13.601 2°56.092 126.9 -999 226 6.2
2007-01-24 08:25:07 51°13.601 2°56.092 126.9 -999 155 -999
2007-01-24 08:25:12 51°13.601 2°56.092 126.9 -999 182 -999
2007-01-24 08:25:17 51°13.601 2°56.092 126.9 -999 323 -999
2007-01-24 08:25:21 51°13.601 2°56.092 126.9 -999 171 6.2
2007-01-24 08:25:27 51°13.601 2°56.092 126.9 -999 232 6.2
2007-01-24 08:25:32 51°13.6 2°56.092 126.9 -999 307 6.2
2007-01-24 08:25:37 51°13.6 2°56.092 126.9 -999 211 6.2
2007-01-24 08:25:42 51°13.6 2°56.092 126.9 -999 342 6.2
2007-01-24 08:25:47 51°13.6 2°56.092 126.9 -999 336 6.2
2007-01-24 08:25:52 51°13.6 2°56.092 126.9 -999 328 6.2
2007-01-24 08:25:57 51°13.6 2°56.092 126.9 -999 337 6.2
2007-01-24 08:26:02 51°13.6 2°56.092 126.9 -999 221 6.2
2007-01-24 08:26:06 51°13.6 2°56.092 126.9 -999 168 6.2
2007-01-24 08:26:12 51°13.6 2°56.092 126.9 -999 320 6.2
2007-01-24 08:26:17 51°13.6 2°56.093 126.9 -999 328 6.2
2007-01-24 08:26:22 51°13.6 2°56.093 126.9 -999 296 6.2
2007-01-24 08:26:26 51°13.6 2°56.093 126.9 -999 287 6.2
2007-01-24 08:26:31 51°13.6 2°56.092 126.9 -999 342 6.2
2007-01-24 08:26:37 51°13.6 2°56.092 126.9 -999 267 6.2
2007-01-24 08:26:42 51°13.6 2°56.093 126.9 -999 189 6.2
2007-01-24 08:26:47 51°13.6 2°56.093 126.9 -999 303 6.2
2007-01-24 08:26:51 51°13.6 2°56.093 126.9 -999 192 6.2
2007-01-24 08:26:57 51°13.6 2°56.093 126.9 -999 160 6.2
2007-01-24 08:27:02 51°13.6 2°56.093 126.9 -999 163 6.2
2007-01-24 08:27:07 51°13.6 2°56.093 126.9 -999 195 6.2
2007-01-24 08:27:11 51°13.6 2°56.093 126.9 -999 207 6.2
2007-01-24 08:27:17 51°13.6 2°56.093 126.9 0.1 187 6.2
2007-01-24 08:27:21 51°13.6 2°56.093 126.9 0.1 188 6.2
2007-01-24 08:27:27 51°13.6 2°56.093 126.9 -999 160 6.2
2007-01-24 08:27:32 51°13.6 2°56.093 126.9 -999 15 6.2
2007-01-24 08:27:37 51°13.6 2°56.093 126.9 -999 213 6.2
2007-01-24 08:27:41 51°13.6 2°56.093 126.9 -999 178 6.2
2007-01-24 08:27:47 51°13.599 2°56.095 126.9 -999 67 6.2
2007-01-24 08:27:52 51°13.599 2°56.094 126.9 -999 215 6.2
2007-01-24 08:27:57 51°13.6 2°56.093 126.9 -999 191 6.2
2007-01-24 08:28:02 51°13.6 2°56.093 126.9 -999 186 6.2
2007-01-24 08:28:06 51°13.6 2°56.093 126.9 -999 165 6.2
2007-01-24 08:28:12 51°13.6 2°56.093 126.9 -999 195 6.2
2007-01-24 08:28:17 51°13.6 2°56.093 126.9 -999 342 6.2
2007-01-24 08:28:22 51°13.6 2°56.093 126.9 -999 19 6.2
2007-01-24 08:28:27 51°13.6 2°56.093 126.9 -999 335 6.2
2007-01-24 08:28:32 51°13.6 2°56.093 126.9 -999 343 6.2
2007-01-24 08:28:37 51°13.599 2°56.093 126.9 -999 269 6.2
2007-01-24 08:28:42 51°13.6 2°56.093 126.9 -999 323 6.2
2007-01-24 08:28:46 51°13.6 2°56.093 126.9 -999 345 6.2
2007-01-24 08:28:51 51°13.6 2°56.093 126.9 -999 334 6.2
2007-01-24 08:28:57 51°13.6 2°56.093 126.9 -999 311 6.2
2007-01-24 08:29:02 51°13.599 2°56.093 126.9 -999 166 6.2
2007-01-24 08:29:07 51°13.599 2°56.093 126.9 -999 307 6.2
2007-01-24 08:29:11 51°13.599 2°56.094 126.9 -999 5 6.1
2007-01-24 08:29:17 51°13.599 2°56.094 126.9 -999 130 6.2
2007-01-24 08:29:22 51°13.599 2°56.094 126.9 -999 185 6.1
2007-01-24 08:29:27 51°13.599 2°56.094 126.9 -999 179 6.1
2007-01-24 08:29:32 51°13.599 2°56.094 126.9 -999 343 6.1
2007-01-24 08:29:37 51°13.599 2°56.094 126.9 -999 176 6.1
2007-01-24 08:29:42 51°13.599 2°56.094 126.9 0.1 172 6.1
2007-01-24 08:29:47 51°13.599 2°56.094 126.9 -999 333 6.1
2007-01-24 08:29:52 51°13.599 2°56.094 126.9 0.1 355 6.1
2007-01-24 08:29:57 51°13.599 2°56.094 126.9 -999 322 6.2
2007-01-24 08:30:02 51°13.599 2°56.094 126.9 -999 2 6.1
2007-01-24 08:30:07 51°13.599 2°56.093 126.9 -999 359 6.1
2007-01-24 08:30:12 51°13.599 2°56.093 126.9 -999 327 6.1
2007-01-24 08:30:17 51°13.599 2°56.093 126.9 -999 358 6.1
2007-01-24 08:30:22 51°13.599 2°56.093 126.9 -999 292 6.2
2007-01-24 08:30:27 51°13.599 2°56.093 126.9 -999 310 6.1
2007-01-24 08:30:32 51°13.599 2°56.093 126.9 -999 13 6.1
2007-01-24 08:30:37 51°13.599 2°56.093 126.9 -999 329 6.1
2007-01-24 08:30:42 51°13.599 2°56.093 126.9 -999 323 6.1
2007-01-24 08:30:46 51°13.599 2°56.093 126.9 -999 322 6.1
2007-01-24 08:30:51 51°13.599 2°56.094 127 -999 332 6.1
2007-01-24 08:30:57 51°13.599 2°56.094 127 -999 266 6.3
2007-01-24 08:31:02 51°13.599 2°56.094 127 -999 190 6.3
2007-01-24 08:31:06 51°13.599 2°56.094 127 -999 190 6.1
2007-01-24 08:31:11 51°13.599 2°56.094 127 -999 350 6.1
2007-01-24 08:31:17 51°13.599 2°56.094 127 -999 218 6.1
2007-01-24 08:31:22 51°13.599 2°56.094 127 -999 92 6.1
2007-01-24 08:31:27 51°13.599 2°56.094 127 -999 165 6.1
2007-01-24 08:31:31 51°13.599 2°56.094 127 -999 255 6.1
2007-01-24 08:31:37 51°13.599 2°56.094 127 -999 306 6.1
2007-01-24 08:31:42 51°13.599 2°56.094 127 -999 188 6.1
2007-01-24 08:31:47 51°13.599 2°56.094 127 -999 355 6.1
2007-01-24 08:31:52 51°13.6 2°56.093 127 -999 335 6.1
2007-01-24 08:31:57 51°13.6 2°56.093 127 -999 238 6.1
2007-01-24 08:32:02 51°13.6 2°56.093 127 -999 338 6.1
2007-01-24 08:32:07 51°13.6 2°56.093 127 -999 191 6.1
2007-01-24 08:32:12 51°13.6 2°56.092 127 -999 215 6.1
2007-01-24 08:32:17 51°13.6 2°56.092 127 -999 180 6.1
2007-01-24 08:32:22 51°13.6 2°56.092 126.9 -999 10 6.1
2007-01-24 08:32:27 51°13.6 2°56.092 126.9 -999 342 6.1
2007-01-24 08:32:32 51°13.6 2°56.092 126.9 -999 176 6.1
2007-01-24 08:32:37 51°13.6 2°56.092 126.9 -999 184 6.1
2007-01-24 08:32:42 51°13.6 2°56.092 126.9 -999 152 6.1
2007-01-24 08:32:46 51°13.6 2°56.092 126.9 0.1 169 6.1
2007-01-24 08:32:52 51°13.6 2°56.092 126.9 0.1 180 6.1
2007-01-24 08:32:57 51°13.6 2°56.092 126.9 -999 359 6.1
2007-01-24 08:33:02 51°13.6 2°56.092 126.9 -999 341 6.1
2007-01-24 08:33:06 51°13.6 2°56.092 126.9 -999 337 6.1
2007-01-24 08:33:12 51°13.6 2°56.092 126.9 0.1 358 6.1
2007-01-24 08:33:17 51°13.6 2°56.091 126.9 -999 18 6.1
2007-01-24 08:33:22 51°13.6 2°56.091 126.9 -999 193 6.1
2007-01-24 08:33:27 51°13.6 2°56.091 126.9 -999 196 6.1
2007-01-24 08:33:31 51°13.6 2°56.091 126.9 -999 9 6.1
2007-01-24 08:33:37 51°13.6 2°56.091 126.9 -999 189 6.1
2007-01-24 08:33:42 51°13.6 2°56.091 126.9 -999 206 6.1
2007-01-24 08:33:47 51°13.6 2°56.091 126.9 -999 247 6.1
2007-01-24 08:33:52 51°13.6 2°56.091 126.9 -999 223 6.1
2007-01-24 08:33:57 51°13.6 2°56.091 126.9 -999 175 6.1
2007-01-24 08:34:02 51°13.6 2°56.091 126.9 -999 283 6.1
2007-01-24 08:34:07 51°13.6 2°56.091 126.9 -999 359 6.1
2007-01-24 08:34:12 51°13.6 2°56.091 126.9 -999 176 6.1
2007-01-24 08:34:17 51°13.6 2°56.092 126.9 -999 179 6
2007-01-24 08:34:22 51°13.6 2°56.092 126.9 -999 263 6.1
2007-01-24 08:34:27 51°13.6 2°56.092 126.9 -999 12 6.1
2007-01-24 08:34:32 51°13.6 2°56.092 126.9 -999 180 6
2007-01-24 08:34:37 51°13.6 2°56.092 126.9 -999 186 6.1
2007-01-24 08:34:42 51°13.6 2°56.092 126.9 -999 346 6.2
2007-01-24 08:34:46 51°13.6 2°56.092 126.9 -999 119 6.4
2007-01-24 08:34:52 51°13.599 2°56.092 126.9 -999 152 6.1
2007-01-24 08:34:57 51°13.599 2°56.092 126.9 -999 343 6.1
2007-01-24 08:35:02 51°13.599 2°56.092 126.9 -999 318 6.1
2007-01-24 08:35:06 51°13.599 2°56.092 126.9 -999 340 6.1
2007-01-24 08:35:12 51°13.599 2°56.093 126.9 -999 182 6
2007-01-24 08:35:17 51°13.599 2°56.093 126.9 -999 191 6
2007-01-24 08:35:22 51°13.599 2°56.093 126.9 -999 324 6
2007-01-24 08:35:27 51°13.599 2°56.093 126.9 -999 338 6
2007-01-24 08:35:31 51°13.599 2°56.093 126.9 0.1 344 6
2007-01-24 08:35:37 51°13.599 2°56.093 126.9 -999 144 6
2007-01-24 08:35:42 51°13.599 2°56.093 126.9 -999 355 6
2007-01-24 08:35:47 51°13.599 2°56.094 126.9 -999 291 6
2007-01-24 08:35:51 51°13.598 2°56.094 126.9 0.1 200 6.1
2007-01-24 08:35:57 51°13.599 2°56.094 126.9 -999 345 6.1
2007-01-24 08:36:02 51°13.598 2°56.094 126.9 -999 132 6.1
2007-01-24 08:36:07 51°13.598 2°56.094 126.9 -999 40 6.1
2007-01-24 08:36:12 51°13.598 2°56.094 126.9 -999 258 6.1
2007-01-24 08:36:17 51°13.598 2°56.094 126.9 -999 300 6.1
2007-01-24 08:36:22 51°13.598 2°56.094 126.9 -999 297 6.1
2007-01-24 08:36:27 51°13.598 2°56.094 126.9 -999 335 6.1
2007-01-24 08:36:32 51°13.597 2°56.094 126.9 -999 343 6
2007-01-24 08:36:37 51°13.597 2°56.094 126.8 -999 317 6
2007-01-24 08:36:42 51°13.597 2°56.094 126.8 0.1 182 6
2007-01-24 08:36:47 51°13.597 2°56.095 126.8 0.1 14 6
2007-01-24 08:36:52 51°13.597 2°56.095 126.8 -999 253 6.1
2007-01-24 08:36:57 51°13.597 2°56.095 126.8 -999 353 6.1
2007-01-24 08:37:02 51°13.597 2°56.095 126.8 -999 337 6.1
2007-01-24 08:37:07 51°13.597 2°56.095 126.8 -999 140 6.1
2007-01-24 08:37:12 51°13.597 2°56.095 126.8 -999 166 6.2
2007-01-24 08:37:17 51°13.597 2°56.095 126.8 -999 192 6.1
2007-01-24 08:37:22 51°13.597 2°56.094 126.8 -999 300 6.1
2007-01-24 08:37:26 51°13.597 2°56.094 126.8 -999 289 6.1
2007-01-24 08:37:32 51°13.597 2°56.094 126.8 -999 172 6
2007-01-24 08:37:37 51°13.597 2°56.094 126.8 -999 158 6
2007-01-24 08:37:42 51°13.597 2°56.094 126.8 -999 197 6.1
2007-01-24 08:37:47 51°13.597 2°56.094 126.8 -999 184 6
2007-01-24 08:37:51 51°13.597 2°56.094 126.8 -999 59 6
2007-01-24 08:37:57 51°13.598 2°56.094 126.8 -999 322 6
2007-01-24 08:38:02 51°13.598 2°56.094 126.8 0.1 353 6
2007-01-24 08:38:07 51°13.598 2°56.094 126.8 -999 196 6
2007-01-24 08:38:11 51°13.598 2°56.094 126.8 -999 177 6
2007-01-24 08:38:17 51°13.598 2°56.094 126.8 -999 277 6.1
2007-01-24 08:38:22 51°13.598 2°56.094 126.8 -999 302 6.1
2007-01-24 08:38:27 51°13.598 2°56.094 126.8 -999 351 6.1
2007-01-24 08:38:32 51°13.598 2°56.094 126.8 0.1 186 -999
2007-01-24 08:38:37 51°13.598 2°56.093 126.8 -999 339 6.1
2007-01-24 08:38:42 51°13.598 2°56.093 126.8 -999 246 6.1
2007-01-24 08:38:47 51°13.598 2°56.093 126.8 -999 339 6.1
2007-01-24 08:38:52 51°13.598 2°56.093 126.8 -999 52 6.1
2007-01-24 08:38:57 51°13.598 2°56.093 126.8 -999 152 6
2007-01-24 08:39:01 51°13.598 2°56.093 126.8 -999 350 6
2007-01-24 08:39:07 51°13.598 2°56.093 126.8 -999 307 6
2007-01-24 08:39:12 51°13.598 2°56.093 126.8 -999 336 6
2007-01-24 08:39:17 51°13.598 2°56.093 126.8 -999 224 6
2007-01-24 08:39:22 51°13.598 2°56.093 126.9 -999 193 6
2007-01-24 08:39:26 51°13.598 2°56.093 126.9 -999 135 6
2007-01-24 08:39:32 51°13.598 2°56.093 126.9 -999 295 6
2007-01-24 08:39:37 51°13.598 2°56.093 126.9 -999 179 6
2007-01-24 08:39:42 51°13.598 2°56.093 126.9 -999 198 6
2007-01-24 08:39:47 51°13.598 2°56.093 126.9 -999 50 6
2007-01-24 08:39:52 51°13.598 2°56.093 126.9 -999 325 6
2007-01-24 08:39:57 51°13.598 2°56.093 126.9 -999 177 6
2007-01-24 08:40:02 51°13.598 2°56.093 126.9 -999 353 6
2007-01-24 08:40:07 51°13.598 2°56.093 126.9 -999 340 6
2007-01-24 08:40:12 51°13.598 2°56.093 126.9 -999 187 6
2007-01-24 08:40:17 51°13.598 2°56.093 126.9 -999 191 6
2007-01-24 08:40:22 51°13.598 2°56.094 126.9 -999 211 6
2007-01-24 08:40:27 51°13.598 2°56.094 126.9 -999 188 6
2007-01-24 08:40:31 51°13.598 2°56.094 126.9 -999 271 6
2007-01-24 08:40:37 51°13.598 2°56.093 126.9 -999 222 6
2007-01-24 08:40:42 51°13.598 2°56.093 126.9 -999 24 6
2007-01-24 08:40:47 51°13.598 2°56.093 126.9 -999 8 6
2007-01-24 08:40:51 51°13.598 2°56.093 126.9 -999 266 6
2007-01-24 08:40:56 51°13.598 2°56.093 126.9 -999 -999 6
2007-01-24 08:41:02 51°13.598 2°56.093 126.9 -999 186 6
2007-01-24 08:41:06 51°13.598 2°56.093 126.9 -999 66 5.9
2007-01-24 08:41:11 51°13.598 2°56.093 126.9 -999 356 6
2007-01-24 08:41:16 51°13.598 2°56.093 126.9 -999 338 5.9
2007-01-24 08:41:21 51°13.598 2°56.092 126.9 -999 311 6
2007-01-24 08:41:27 51°13.598 2°56.092 126.9 -999 213 5.9
2007-01-24 08:41:32 51°13.598 2°56.092 126.9 -999 199 5.9
2007-01-24 08:41:37 51°13.598 2°56.093 126.9 -999 180 5.9
2007-01-24 08:41:42 51°13.599 2°56.093 126.9 -999 222 6
2007-01-24 08:41:47 51°13.599 2°56.092 126.9 -999 5 6
2007-01-24 08:41:51 51°13.599 2°56.092 126.9 -999 210 6
2007-01-24 08:41:57 51°13.598 2°56.092 126.9 -999 185 6
2007-01-24 08:42:02 51°13.598 2°56.091 126.9 -999 215 6
2007-01-24 08:42:06 51°13.598 2°56.091 126.9 -999 16 6
2007-01-24 08:42:11 51°13.598 2°56.091 126.9 -999 188 6
2007-01-24 08:42:16 51°13.598 2°56.091 126.9 -999 253 5.9
2007-01-24 08:42:21 51°13.598 2°56.091 126.9 -999 221 6
2007-01-24 08:42:26 51°13.599 2°56.091 126.9 -999 205 5.9
2007-01-24 08:42:31 51°13.599 2°56.091 126.9 -999 173 5.9
2007-01-24 08:42:36 51°13.599 2°56.091 126.9 -999 233 5.9
2007-01-24 08:42:42 51°13.6 2°56.091 126.9 -999 325 5.9
2007-01-24 08:42:46 51°13.6 2°56.091 126.9 -999 240 5.9
2007-01-24 08:42:51 51°13.6 2°56.091 126.9 -999 13 5.9
2007-01-24 08:42:56 51°13.6 2°56.091 126.9 -999 47 5.9
2007-01-24 08:43:02 51°13.6 2°56.091 126.9 -999 65 5.9
2007-01-24 08:43:06 51°13.6 2°56.091 126.9 -999 1 5.9
2007-01-24 08:43:11 51°13.599 2°56.09 126.9 -999 225 5.9
2007-01-24 08:43:16 51°13.599 2°56.09 126.9 -999 176 5.9
2007-01-24 08:43:22 51°13.599 2°56.09 126.9 -999 169 5.9
2007-01-24 08:43:26 51°13.598 2°56.091 126.9 -999 10 5.9
2007-01-24 08:43:31 51°13.597 2°56.091 126.9 -999 332 5.9
2007-01-24 08:43:35 51°13.597 2°56.091 126.9 -999 288 5.9
2007-01-24 08:43:41 51°13.597 2°56.091 126.8 -999 116 5.9
2007-01-24 08:43:47 51°13.597 2°56.091 126.8 -999 301 5.9
2007-01-24 08:43:51 51°13.597 2°56.091 126.8 -999 185 5.9
2007-01-24 08:43:57 51°13.599 2°56.09 126.8 -999 231 6.6
2007-01-24 08:44:01 51°13.599 2°56.09 126.8 -999 306 5.9
2007-01-24 08:44:06 51°13.6 2°56.09 126.8 -999 186 5.9
2007-01-24 08:44:11 51°13.6 2°56.09 126.8 -999 64 5.9
2007-01-24 08:44:16 51°13.6 2°56.09 126.8 -999 25 5.9
2007-01-24 08:44:21 51°13.6 2°56.09 126.8 0.1 227 5.9
2007-01-24 08:44:26 51°13.6 2°56.09 126.8 -999 124 5.9
2007-01-24 08:44:31 51°13.6 2°56.09 126.8 -999 158 5.9
2007-01-24 08:44:36 51°13.6 2°56.09 126.8 -999 155 6
2007-01-24 08:44:41 51°13.6 2°56.091 126.9 -999 344 6
2007-01-24 08:44:46 51°13.6 2°56.091 126.9 -999 269 6.1
2007-01-24 08:44:51 51°13.6 2°56.091 127 -999 350 5.9
2007-01-24 08:44:56 51°13.6 2°56.091 127 -999 208 5.9
2007-01-24 08:45:01 51°13.601 2°56.091 127 -999 300 5.9
2007-01-24 08:45:06 51°13.601 2°56.091 127 -999 242 5.9
2007-01-24 08:45:11 51°13.601 2°56.091 127 -999 238 5.9
2007-01-24 08:45:16 51°13.601 2°56.091 127 -999 187 5.9
2007-01-24 08:45:21 51°13.601 2°56.092 127 -999 316 5.9
2007-01-24 08:45:26 51°13.601 2°56.092 127 -999 275 5.9
2007-01-24 08:45:31 51°13.601 2°56.092 127 -999 167 5.9
2007-01-24 08:45:36 51°13.601 2°56.092 127 -999 183 5.9
2007-01-24 08:45:41 51°13.6 2°56.091 127 -999 171 6
2007-01-24 08:45:46 51°13.6 2°56.091 127 -999 191 5.9
2007-01-24 08:45:51 51°13.6 2°56.091 127 -999 352 5.9
2007-01-24 08:45:56 51°13.6 2°56.091 127 -999 256 5.9
2007-01-24 08:46:01 51°13.599 2°56.091 127 -999 276 5.9
2007-01-24 08:46:06 51°13.6 2°56.091 127 -999 7 5.9
2007-01-24 08:46:11 51°13.599 2°56.091 127 -999 334 5.9
2007-01-24 08:46:16 51°13.599 2°56.091 127 -999 301 5.9
2007-01-24 08:46:21 51°13.599 2°56.091 127 -999 208 5.9
2007-01-24 08:46:26 51°13.599 2°56.091 127 -999 347 5.9
2007-01-24 08:46:31 51°13.599 2°56.091 127 -999 309 5.9
2007-01-24 08:46:36 51°13.599 2°56.091 127 -999 220 5.9
2007-01-24 08:46:41 51°13.599 2°56.091 127 -999 14 5.9
2007-01-24 08:46:46 51°13.599 2°56.091 126.9 -999 218 5.9
2007-01-24 08:46:51 51°13.599 2°56.091 126.8 -999 204 5.9
2007-01-24 08:46:56 51°13.599 2°56.091 126.8 -999 251 5.9
2007-01-24 08:47:01 51°13.6 2°56.091 126.8 -999 274 5.9
2007-01-24 08:47:06 51°13.6 2°56.091 126.8 -999 267 5.9
2007-01-24 08:47:11 51°13.599 2°56.091 126.8 -999 196 5.9
2007-01-24 08:47:16 51°13.599 2°56.091 126.8 -999 232 5.9
2007-01-24 08:47:21 51°13.599 2°56.091 126.8 -999 177 5.9
2007-01-24 08:47:26 51°13.599 2°56.091 126.8 -999 152 5.9
2007-01-24 08:47:31 51°13.599 2°56.091 126.8 -999 272 5.9
2007-01-24 08:47:36 51°13.6 2°56.091 126.8 -999 125 5.9
2007-01-24 08:47:41 51°13.6 2°56.091 126.8 -999 116 5.9
2007-01-24 08:47:46 51°13.6 2°56.092 126.8 -999 249 5.9
2007-01-24 08:47:51 51°13.6 2°56.092 126.8 -999 193 5.9
2007-01-24 08:47:56 51°13.6 2°56.092 126.8 -999 65 5.9
2007-01-24 08:48:01 51°13.6 2°56.092 126.8 -999 22 5.9
2007-01-24 08:48:06 51°13.6 2°56.092 126.8 -999 191 5.9
2007-01-24 08:48:11 51°13.6 2°56.092 126.8 -999 146 5.9
2007-01-24 08:48:16 51°13.6 2°56.092 126.8 -999 201 5.9
2007-01-24 08:48:21 51°13.6 2°56.092 126.8 -999 259 5.9
2007-01-24 08:48:26 51°13.6 2°56.092 126.8 -999 27 5.9
2007-01-24 08:48:31 51°13.6 2°56.092 126.8 -999 338 5.9
2007-01-24 08:48:36 51°13.6 2°56.093 126.8 -999 110 5.9
2007-01-24 08:48:41 51°13.6 2°56.093 126.8 -999 130 5.9
2007-01-24 08:48:46 51°13.6 2°56.093 126.8 -999 334 5.9
2007-01-24 08:48:51 51°13.6 2°56.093 126.8 -999 191 5.9
2007-01-24 08:48:56 51°13.6 2°56.093 126.8 -999 199 5.9
2007-01-24 08:49:01 51°13.6 2°56.093 126.8 -999 195 5.9
2007-01-24 08:49:06 51°13.6 2°56.093 126.8 -999 107 5.9
2007-01-24 08:49:11 51°13.6 2°56.092 126.8 -999 207 5.9
2007-01-24 08:49:16 51°13.599 2°56.092 126.8 -999 46 5.9
2007-01-24 08:49:21 51°13.599 2°56.092 126.8 -999 211 5.9
2007-01-24 08:49:26 51°13.599 2°56.092 126.8 -999 343 5.9
2007-01-24 08:49:31 51°13.599 2°56.092 126.8 -999 163 5.9
2007-01-24 08:49:36 51°13.599 2°56.092 126.8 -999 7 5.9
2007-01-24 08:49:41 51°13.599 2°56.092 126.8 -999 301 5.9
2007-01-24 08:49:46 51°13.599 2°56.092 126.8 -999 194 5.8
2007-01-24 08:49:51 51°13.599 2°56.092 126.8 -999 274 5.9
2007-01-24 08:49:56 51°13.599 2°56.092 126.8 -999 347 5.9
2007-01-24 08:50:01 51°13.599 2°56.092 126.8 -999 45 5.9
2007-01-24 08:50:06 51°13.599 2°56.092 126.8 -999 334 5.9
2007-01-24 08:50:11 51°13.599 2°56.092 126.8 -999 12 5.9
2007-01-24 08:50:16 51°13.599 2°56.092 126.8 -999 239 5.9
2007-01-24 08:50:21 51°13.599 2°56.092 126.8 -999 229 5.8
2007-01-24 08:50:26 51°13.599 2°56.092 126.8 -999 232 5.9
2007-01-24 08:50:31 51°13.599 2°56.092 126.8 -999 244 5.9
2007-01-24 08:50:36 51°13.599 2°56.093 126.8 -999 72 5.9
2007-01-24 08:50:41 51°13.599 2°56.093 126.8 -999 296 5.8
2007-01-24 08:50:46 51°13.599 2°56.093 126.8 -999 257 5.9
2007-01-24 08:50:51 51°13.599 2°56.093 126.8 -999 214 5.9
2007-01-24 08:50:56 51°13.599 2°56.093 126.8 -999 233 5.9
2007-01-24 08:51:01 51°13.599 2°56.093 126.8 -999 136 5.9
2007-01-24 08:51:06 51°13.599 2°56.093 126.8 -999 35 5.9
2007-01-24 08:51:11 51°13.599 2°56.092 126.8 -999 225 5.9
2007-01-24 08:51:16 51°13.599 2°56.093 126.8 -999 29 5.8
2007-01-24 08:51:21 51°13.599 2°56.093 126.8 -999 208 5.8
2007-01-24 08:51:26 51°13.599 2°56.093 126.8 -999 159 5.8
2007-01-24 08:51:31 51°13.599 2°56.093 126.8 -999 344 5.8
2007-01-24 08:51:36 51°13.599 2°56.093 126.8 -999 279 5.8
2007-01-24 08:51:41 51°13.599 2°56.093 126.8 -999 32 6.1
2007-01-24 08:51:46 51°13.599 2°56.093 126.8 -999 210 5.8
2007-01-24 08:51:51 51°13.599 2°56.093 126.8 -999 116 5.8
2007-01-24 08:51:56 51°13.599 2°56.093 126.8 -999 326 5.8
2007-01-24 08:52:01 51°13.599 2°56.093 126.8 -999 85 5.9
2007-01-24 08:52:06 51°13.599 2°56.093 126.8 -999 203 5.8
2007-01-24 08:52:11 51°13.599 2°56.093 126.8 -999 91 5.8
2007-01-24 08:52:16 51°13.599 2°56.093 126.8 -999 280 5.9
2007-01-24 08:52:21 51°13.599 2°56.093 126.8 -999 197 5.8
2007-01-24 08:52:26 51°13.599 2°56.093 126.8 -999 330 5.9
2007-01-24 08:52:31 51°13.599 2°56.092 126.8 -999 318 5.8
2007-01-24 08:52:36 51°13.599 2°56.092 126.8 -999 206 5.8
2007-01-24 08:52:41 51°13.599 2°56.092 126.8 -999 67 5.8
2007-01-24 08:52:46 51°13.599 2°56.091 126.8 -999 235 5.8
2007-01-24 08:52:51 51°13.599 2°56.092 126.8 -999 320 5.8
2007-01-24 08:52:56 51°13.599 2°56.092 126.9 -999 127 5.8
2007-01-24 08:53:01 51°13.598 2°56.092 126.9 -999 222 5.8
2007-01-24 08:53:06 51°13.598 2°56.092 126.9 -999 213 5.8
2007-01-24 08:53:11 51°13.598 2°56.092 126.9 0.1 229 5.8
2007-01-24 08:53:16 51°13.598 2°56.092 126.9 0.1 224 5.8
2007-01-24 08:53:21 51°13.598 2°56.092 127.2 -999 163 5.9
2007-01-24 08:53:26 51°13.598 2°56.092 127.4 0.1 150 5.8
2007-01-24 08:53:31 51°13.598 2°56.092 127.7 0.1 147 5.9
2007-01-24 08:53:36 51°13.598 2°56.092 127.8 0.2 136 5.9
2007-01-24 08:53:41 51°13.598 2°56.093 128.2 0.2 138 5.9
2007-01-24 08:53:46 51°13.598 2°56.093 128.5 0.2 97 6
2007-01-24 08:53:51 51°13.597 2°56.094 128.8 0.1 131 6
2007-01-24 08:53:56 51°13.598 2°56.094 128.9 0.1 47 6
2007-01-24 08:54:01 51°13.598 2°56.094 128.3 0.1 217 5.9
2007-01-24 08:54:06 51°13.598 2°56.094 127.3 0.1 21 5.9
2007-01-24 08:54:11 51°13.598 2°56.094 126.9 0.1 234 6
2007-01-24 08:54:16 51°13.598 2°56.094 126.6 0.1 11 6
2007-01-24 08:54:21 51°13.598 2°56.094 126.5 0.1 221 5.9
2007-01-24 08:54:26 51°13.598 2°56.094 126.3 0.1 51 5.8
2007-01-24 08:54:31 51°13.598 2°56.094 126.3 -999 166 5.9
2007-01-24 08:54:36 51°13.598 2°56.094 126.2 -999 60 5.8
2007-01-24 08:54:41 51°13.598 2°56.094 126.2 -999 269 5.8
2007-01-24 08:54:46 51°13.598 2°56.094 126.2 -999 220 5.9
2007-01-24 08:54:51 51°13.598 2°56.094 126.2 -999 335 5.9
2007-01-24 08:54:56 51°13.598 2°56.094 126.2 -999 276 5.8
2007-01-24 08:55:01 51°13.598 2°56.094 126.2 -999 1 5.9
2007-01-24 08:55:06 51°13.598 2°56.094 125.9 0.1 144 5.9
2007-01-24 08:55:11 51°13.598 2°56.094 125.4 0.1 139 6
2007-01-24 08:55:16 51°13.598 2°56.094 124.5 0.1 178 5.8
2007-01-24 08:55:21 51°13.598 2°56.094 123.3 -999 203 5.8
2007-01-24 08:55:26 51°13.598 2°56.094 121.9 0.1 186 5.8
2007-01-24 08:55:31 51°13.598 2°56.094 121 0.1 172 6
2007-01-24 08:55:36 51°13.597 2°56.094 119.8 0.1 182 6
2007-01-24 08:55:41 51°13.597 2°56.094 118.6 0.1 186 5.8
2007-01-24 08:55:46 51°13.597 2°56.094 117.5 0.1 210 5.9
2007-01-24 08:55:51 51°13.597 2°56.094 116.1 0.1 259 6
2007-01-24 08:55:56 51°13.597 2°56.093 115.4 0.2 280 6
2007-01-24 08:56:01 51°13.597 2°56.092 114.7 0.3 282 6
2007-01-24 08:56:06 51°13.598 2°56.091 114.3 0.5 289 6.1
2007-01-24 08:56:11 51°13.598 2°56.09 113.9 0.6 289 6
2007-01-24 08:56:16 51°13.598 2°56.089 113.8 0.7 292 6.1
2007-01-24 08:56:21 51°13.599 2°56.087 113.7 0.9 289 6.2
2007-01-24 08:56:26 51°13.599 2°56.084 114 1.3 294 6.3
2007-01-24 08:56:31 51°13.6 2°56.081 114.5 1.6 292 6.8
2007-01-24 08:56:36 51°13.601 2°56.077 115.1 2 295 5.1
2007-01-24 08:56:41 51°13.603 2°56.072 115.8 2.5 294 4.6
2007-01-24 08:56:46 51°13.604 2°56.066 116.7 3 295 -999
2007-01-24 08:56:51 51°13.606 2°56.06 117.4 3.3 295 -999
2007-01-24 08:56:56 51°13.609 2°56.053 118 3.6 296 -999
2007-01-24 08:57:01 51°13.611 2°56.045 118.4 3.8 297 -999
2007-01-24 08:57:06 51°13.613 2°56.037 118.8 3.8 296 -999
2007-01-24 08:57:11 51°13.616 2°56.03 119 3.9 297 -999
2007-01-24 08:57:16 51°13.618 2°56.022 119 3.9 297 -999
2007-01-24 08:57:22 51°13.621 2°56.013 119 4.1 297 4.5
2007-01-24 08:57:26 51°13.623 2°56.006 119 4.3 296 -999
2007-01-24 08:57:32 51°13.627 2°55.995 119.4 4.4 297 -999
2007-01-24 08:57:36 51°13.629 2°55.988 120.1 4.6 297 -999
2007-01-24 08:57:41 51°13.632 2°55.979 120.6 4.7 298 -999
2007-01-24 08:57:46 51°13.635 2°55.969 121 4.7 298 -999
2007-01-24 08:57:51 51°13.638 2°55.96 121.3 4.7 298 -999
2007-01-24 08:57:56 51°13.641 2°55.951 121.6 4.7 298 -999
2007-01-24 08:58:01 51°13.644 2°55.942 121.7 4.6 298 -999
2007-01-24 08:58:06 51°13.647 2°55.933 121.7 4.6 298 -999
2007-01-24 08:58:11 51°13.65 2°55.924 121.8 4.6 298 -999
2007-01-24 08:58:17 51°13.654 2°55.914 121.9 4.6 299 -999
2007-01-24 08:58:21 51°13.656 2°55.906 121.9 4.6 299 -999
2007-01-24 08:58:26 51°13.659 2°55.898 121.9 4.6 299 -999
2007-01-24 08:58:31 51°13.663 2°55.889 121.9 4.6 298 -999
2007-01-24 08:58:37 51°13.666 2°55.878 121.6 4.6 299 -999
2007-01-24 08:58:42 51°13.669 2°55.869 121 4.5 298 -999
2007-01-24 08:58:46 51°13.671 2°55.862 120.1 4.3 297 -999
2007-01-24 08:58:51 51°13.674 2°55.854 119.4 4.3 298 -999
2007-01-24 08:58:56 51°13.677 2°55.846 118.8 4.2 296 4.7
2007-01-24 08:59:01 51°13.679 2°55.838 118.3 4.1 296 4.6
2007-01-24 08:59:06 51°13.682 2°55.83 117.5 4 295 -999
2007-01-24 08:59:11 51°13.684 2°55.822 116.6 3.9 295 4.6
2007-01-24 08:59:16 51°13.686 2°55.814 115.5 3.7 294 4.6
2007-01-24 08:59:21 51°13.688 2°55.807 114.3 3.6 293 9
2007-01-24 08:59:26 51°13.69 2°55.8 113.3 3.5 292 9.2
2007-01-24 08:59:31 51°13.691 2°55.793 112.4 3.4 291 9.4
2007-01-24 08:59:36 51°13.693 2°55.786 111.2 3.3 291 9.5
2007-01-24 08:59:41 51°13.695 2°55.779 110 3.2 290 9.9
2007-01-24 08:59:46 51°13.696 2°55.773 108.7 3.1 289 10.5
2007-01-24 08:59:51 51°13.697 2°55.767 107.4 3 288 10.8
2007-01-24 08:59:56 51°13.698 2°55.761 106.4 2.7 287 11.7
2007-01-24 09:00:01 51°13.699 2°55.756 105.3 2.5 287 11.5
2007-01-24 09:00:06 51°13.7 2°55.751 104 2.2 287 11.2
2007-01-24 09:00:11 51°13.701 2°55.747 102.4 1.9 288 11
2007-01-24 09:00:16 51°13.702 2°55.744 100.7 1.5 289 11
2007-01-24 09:00:21 51°13.702 2°55.742 98.3 1.1 296 11
2007-01-24 09:00:26 51°13.703 2°55.741 95.3 0.6 308 10.8
2007-01-24 09:00:31 51°13.703 2°55.741 91.5 0.5 347 10.7
2007-01-24 09:00:36 51°13.704 2°55.741 86.9 0.5 28 10.7
2007-01-24 09:00:41 51°13.705 2°55.743 81.6 0.8 45 10.8
2007-01-24 09:00:46 51°13.706 2°55.744 75.8 0.8 40 10.9
2007-01-24 09:00:51 51°13.706 2°55.745 70.4 0.7 39 11.1
2007-01-24 09:00:56 51°13.707 2°55.745 66.3 0.6 34 11.2
2007-01-24 09:01:01 51°13.708 2°55.746 63.5 0.5 33 11.4
2007-01-24 09:01:06 51°13.708 2°55.746 61 0.4 9 11.6
2007-01-24 09:01:11 51°13.709 2°55.746 58.6 0.2 340 11.6
2007-01-24 09:01:16 51°13.709 2°55.745 56.3 0.3 282 12.1
2007-01-24 09:01:21 51°13.709 2°55.744 54.4 0.6 250 11.5
2007-01-24 09:01:26 51°13.708 2°55.742 52.7 0.7 250 11.3
2007-01-24 09:01:31 51°13.708 2°55.741 51.3 0.8 248 11.3
2007-01-24 09:01:36 51°13.708 2°55.739 50.2 0.7 248 11.1
2007-01-24 09:01:41 51°13.707 2°55.738 49.3 0.7 248 11.1
2007-01-24 09:01:46 51°13.707 2°55.737 48.6 0.6 255 10.9
2007-01-24 09:01:51 51°13.707 2°55.736 47.9 0.5 255 10.9
2007-01-24 09:01:56 51°13.707 2°55.734 46.9 0.5 273 10.9
2007-01-24 09:02:01 51°13.707 2°55.734 45.7 0.3 301 11
2007-01-24 09:02:06 51°13.707 2°55.734 44 0.4 340 10
2007-01-24 09:02:11 51°13.708 2°55.734 41.4 0.6 -999 9.1
2007-01-24 09:02:16 51°13.709 2°55.734 38.2 0.9 6 10.9
2007-01-24 09:02:21 51°13.711 2°55.734 34.1 1.2 8 10.7
2007-01-24 09:02:26 51°13.713 2°55.735 29.4 1.4 8 10.4
2007-01-24 09:02:31 51°13.715 2°55.735 24.1 1.6 4 10.7
2007-01-24 09:02:36 51°13.718 2°55.735 18.6 1.8 2 10.8
2007-01-24 09:02:41 51°13.721 2°55.735 13 2 357 10.7
2007-01-24 09:02:46 51°13.723 2°55.734 7.7 2.1 354 10.4
2007-01-24 09:02:51 51°13.726 2°55.734 2.5 2.2 349 9.9
2007-01-24 09:02:56 51°13.73 2°55.732 357.4 2.3 345 9.9
2007-01-24 09:03:01 51°13.733 2°55.731 352.3 2.3 342 9.9
2007-01-24 09:03:06 51°13.736 2°55.729 347.6 2.3 337 9.5
2007-01-24 09:03:11 51°13.738 2°55.727 343.9 2.2 337 9
2007-01-24 09:03:16 51°13.741 2°55.725 341.1 2.2 334 8.9
2007-01-24 09:03:21 51°13.744 2°55.722 338.7 2.2 333 8.7
2007-01-24 09:03:26 51°13.747 2°55.72 336.7 2.2 329 8.6
2007-01-24 09:03:31 51°13.749 2°55.717 334.9 2.2 330 8.6
2007-01-24 09:03:36 51°13.752 2°55.715 333.6 2.2 329 8.7
2007-01-24 09:03:41 51°13.754 2°55.713 332.8 2.2 330 8.7
2007-01-24 09:03:46 51°13.757 2°55.71 332.3 2.1 329 8.7
2007-01-24 09:03:51 51°13.76 2°55.708 332 2.1 330 8.7
2007-01-24 09:03:56 51°13.762 2°55.706 331.9 2.1 330 8.6
2007-01-24 09:04:01 51°13.764 2°55.703 331.9 2.1 331 8.5
2007-01-24 09:04:06 51°13.767 2°55.701 331.9 2.1 331 8.6
2007-01-24 09:04:11 51°13.769 2°55.699 331.8 2.1 331 8.4
2007-01-24 09:04:16 51°13.772 2°55.697 331.7 2.1 331 8.4
2007-01-24 09:04:21 51°13.774 2°55.695 331.6 2 330 8.4
2007-01-24 09:04:26 51°13.777 2°55.692 331.4 2.1 331 8.3
2007-01-24 09:04:31 51°13.779 2°55.69 331.2 2 330 8.1
2007-01-24 09:04:36 51°13.782 2°55.688 331 2 331 8.2
2007-01-24 09:04:41 51°13.784 2°55.686 330.8 2 330 8.2
2007-01-24 09:04:46 51°13.786 2°55.683 330.6 2 331 8.3
2007-01-24 09:04:51 51°13.789 2°55.681 330.5 2 331 8.4
2007-01-24 09:04:56 51°13.791 2°55.679 330.5 2 331 8.3
2007-01-24 09:05:01 51°13.794 2°55.677 330.5 2 330 8.4
2007-01-24 09:05:06 51°13.796 2°55.675 330.5 2 330 8.5
2007-01-24 09:05:11 51°13.799 2°55.673 330.5 2 330 8.5
2007-01-24 09:05:16 51°13.801 2°55.67 330.3 2 329 8.5
2007-01-24 09:05:21 51°13.803 2°55.668 330.2 1.9 329 8.5
2007-01-24 09:05:26 51°13.805 2°55.666 329.9 1.9 329 8.5
2007-01-24 09:05:31 51°13.808 2°55.664 329.5 1.9 329 8.6
2007-01-24 09:05:36 51°13.81 2°55.661 329.4 2 328 8.7
2007-01-24 09:05:41 51°13.812 2°55.659 329.4 2 329 8.8
2007-01-24 09:05:46 51°13.815 2°55.657 329.5 2 330 8.8
2007-01-24 09:05:51 51°13.817 2°55.655 330.1 2 330 8.9
2007-01-24 09:05:56 51°13.819 2°55.652 330.8 2 331 8.9
2007-01-24 09:06:01 51°13.822 2°55.65 331.6 2 332 8.9
2007-01-24 09:06:06 51°13.824 2°55.648 332.3 2 332 8.6
2007-01-24 09:06:11 51°13.827 2°55.646 333 1.9 333 8.5
2007-01-24 09:06:16 51°13.829 2°55.644 333.4 1.9 332 8.4
2007-01-24 09:06:21 51°13.831 2°55.642 333.8 1.9 332 8.5
2007-01-24 09:06:26 51°13.834 2°55.641 334.2 1.9 331 8.8
2007-01-24 09:06:31 51°13.836 2°55.639 334.4 1.9 331 9.1
2007-01-24 09:06:36 51°13.838 2°55.637 334.5 1.8 331 9.7
2007-01-24 09:06:41 51°13.84 2°55.635 334.6 1.8 331 9.7
2007-01-24 09:06:46 51°13.843 2°55.633 334.6 1.8 332 9.3
2007-01-24 09:06:51 51°13.845 2°55.631 334.7 1.8 331 9
2007-01-24 09:06:56 51°13.847 2°55.629 334.8 1.7 332 8.9
2007-01-24 09:07:01 51°13.848 2°55.628 334.9 1.5 331 8.8
2007-01-24 09:07:06 51°13.85 2°55.626 335.1 1.4 334 8.8
2007-01-24 09:07:11 51°13.852 2°55.625 335.4 1.2 332 8.7
2007-01-24 09:07:16 51°13.853 2°55.624 335.8 1 334 8.5
2007-01-24 09:07:21 51°13.854 2°55.623 336 0.9 334 8.5
2007-01-24 09:07:26 51°13.855 2°55.622 336.3 0.7 335 8.5
2007-01-24 09:07:31 51°13.856 2°55.622 336.7 0.6 337 8.5
2007-01-24 09:07:36 51°13.857 2°55.621 336.8 0.6 338 8.5
2007-01-24 09:07:41 51°13.857 2°55.621 336.9 0.6 337 8.4
2007-01-24 09:07:46 51°13.858 2°55.62 337.1 0.6 337 8.6
2007-01-24 09:07:51 51°13.859 2°55.62 337.3 0.7 338 8.8
2007-01-24 09:07:56 51°13.86 2°55.62 337.4 0.7 337 9.1
2007-01-24 09:08:01 51°13.861 2°55.619 337.5 0.7 340 9.3
2007-01-24 09:08:06 51°13.862 2°55.618 337.5 0.6 338 9.2
2007-01-24 09:08:11 51°13.863 2°55.618 337.5 0.6 340 9
2007-01-24 09:08:16 51°13.863 2°55.617 337.7 0.6 338 8.8
2007-01-24 09:08:21 51°13.864 2°55.616 338 0.6 341 8.8
2007-01-24 09:08:26 51°13.864 2°55.616 338.4 0.6 338 8.9
2007-01-24 09:08:31 51°13.865 2°55.615 338.9 0.6 340 8.8
2007-01-24 09:08:36 51°13.866 2°55.615 339.4 0.6 339 8.9
2007-01-24 09:08:41 51°13.867 2°55.614 339.6 0.6 340 9
2007-01-24 09:08:46 51°13.868 2°55.614 340.2 0.7 340 9.1
2007-01-24 09:08:51 51°13.869 2°55.614 340.5 0.7 342 9.1
2007-01-24 09:08:56 51°13.87 2°55.613 340.9 0.8 338 9.1
2007-01-24 09:09:01 51°13.871 2°55.613 341 0.8 340 9.1
2007-01-24 09:09:06 51°13.872 2°55.612 341.1 0.8 339 9.1
2007-01-24 09:09:11 51°13.873 2°55.611 341.1 0.8 341 9.2
2007-01-24 09:09:16 51°13.874 2°55.611 341.2 0.8 338 9.2
2007-01-24 09:09:21 51°13.875 2°55.61 341.2 0.8 342 8.8
2007-01-24 09:09:26 51°13.876 2°55.61 341.3 0.8 339 8.7
2007-01-24 09:09:31 51°13.877 2°55.609 341.3 0.8 340 9.1
2007-01-24 09:09:36 51°13.878 2°55.608 341.4 0.8 337 9.3
2007-01-24 09:09:41 51°13.879 2°55.608 341.4 0.8 340 9.3
2007-01-24 09:09:46 51°13.881 2°55.607 341.5 0.8 338 9.1
2007-01-24 09:09:51 51°13.882 2°55.607 341.5 0.8 339 9.1
2007-01-24 09:09:56 51°13.883 2°55.606 341.6 0.8 341 9.2
2007-01-24 09:10:01 51°13.884 2°55.605 341.7 0.8 339 9.3
2007-01-24 09:10:06 51°13.885 2°55.605 341.8 0.7 343 9.3
2007-01-24 09:10:11 51°13.886 2°55.604 341.9 0.6 339 9.5
2007-01-24 09:10:16 51°13.886 2°55.604 341.9 0.4 346 9.5
2007-01-24 09:10:21 51°13.886 2°55.604 341.9 0.1 337 9.5
2007-01-24 09:10:26 51°13.886 2°55.604 341.9 -999 12 -999
2007-01-24 09:10:31 51°13.886 2°55.604 341.9 0.1 23 -999
2007-01-24 09:10:36 51°13.886 2°55.604 342 0.1 10 9.5
2007-01-24 09:10:41 51°13.886 2°55.604 342.1 0.1 8 9.5
2007-01-24 09:10:46 51°13.886 2°55.604 342.3 0.1 355 9.5
2007-01-24 09:10:51 51°13.887 2°55.604 342.3 0.2 349 -999
2007-01-24 09:10:56 51°13.887 2°55.604 342.4 0.2 348 9.5
2007-01-24 09:11:01 51°13.888 2°55.604 342.4 0.3 344 9.5
2007-01-24 09:11:06 51°13.888 2°55.603 342.4 0.4 344 9.5
2007-01-24 09:11:11 51°13.889 2°55.603 342.3 0.4 344 9.5
2007-01-24 09:11:16 51°13.889 2°55.603 342.1 0.5 345 9.5
2007-01-24 09:11:21 51°13.89 2°55.602 341.8 0.5 345 9.4
2007-01-24 09:11:26 51°13.891 2°55.602 341.5 0.6 341 9.4
2007-01-24 09:11:31 51°13.892 2°55.602 341.1 0.6 343 9.4
2007-01-24 09:11:36 51°13.893 2°55.601 340.9 0.7 339 9.4
2007-01-24 09:11:41 51°13.894 2°55.601 340.4 0.8 340 9.5
2007-01-24 09:11:46 51°13.895 2°55.6 340.4 0.9 339 9.4
2007-01-24 09:11:51 51°13.896 2°55.599 340.2 1 341 9.5
2007-01-24 09:11:56 51°13.898 2°55.598 340 1.1 339 9.5
2007-01-24 09:12:01 51°13.899 2°55.598 339.6 1.2 338 9.5
2007-01-24 09:12:06 51°13.901 2°55.596 339.4 1.2 338 9.5
2007-01-24 09:12:11 51°13.902 2°55.596 339 1.3 338 9.5
2007-01-24 09:12:16 51°13.904 2°55.594 338.7 1.4 336 9.5
2007-01-24 09:12:21 51°13.906 2°55.593 338.3 1.5 336 9.5
2007-01-24 09:12:26 51°13.908 2°55.592 337.9 1.7 336 9.6
2007-01-24 09:12:31 51°13.911 2°55.59 337.5 1.8 336 9.5
2007-01-24 09:12:36 51°13.913 2°55.588 336.9 1.9 335 9.5
2007-01-24 09:12:41 51°13.916 2°55.586 336.3 2 334 9.5
2007-01-24 09:12:46 51°13.918 2°55.584 335.6 2 333 9.5
2007-01-24 09:12:51 51°13.92 2°55.582 334.7 1.9 332 9.6
2007-01-24 09:12:56 51°13.923 2°55.58 333.8 1.8 332 9.5
2007-01-24 09:13:01 51°13.925 2°55.579 333.1 1.7 332 9.5
2007-01-24 09:13:06 51°13.926 2°55.577 332.6 1.6 331 9.5
2007-01-24 09:13:11 51°13.928 2°55.575 332.3 1.5 330 9.5
2007-01-24 09:13:16 51°13.93 2°55.574 332.3 1.4 334 9.5
2007-01-24 09:13:21 51°13.932 2°55.573 333.1 1.4 332 9.5
2007-01-24 09:13:26 51°13.933 2°55.571 334 1.4 334 9.5
2007-01-24 09:13:31 51°13.935 2°55.57 334.6 1.4 332 9.5
2007-01-24 09:13:36 51°13.937 2°55.569 335.3 1.4 335 9.5
2007-01-24 09:13:41 51°13.938 2°55.567 336 1.3 333 9.5
2007-01-24 09:13:46 51°13.94 2°55.566 336.4 1.3 336 9.5
2007-01-24 09:13:51 51°13.942 2°55.565 336.7 1.3 334 9.4
2007-01-24 09:13:56 51°13.944 2°55.564 337 1.3 337 9.5
2007-01-24 09:14:01 51°13.945 2°55.563 337.2 1.3 335 9.4
2007-01-24 09:14:06 51°13.947 2°55.562 337.3 1.3 336 9.4
2007-01-24 09:14:11 51°13.948 2°55.56 337.4 1.2 335 9.4
2007-01-24 09:14:16 51°13.95 2°55.559 337.4 1.2 337 9.5
2007-01-24 09:14:21 51°13.951 2°55.558 337.3 1.2 336 9.4
2007-01-24 09:14:26 51°13.953 2°55.557 337.2 1.2 337 9.5
2007-01-24 09:14:31 51°13.954 2°55.556 337 1.2 336 9.4
2007-01-24 09:14:36 51°13.956 2°55.555 336.9 1.2 337 9.4
2007-01-24 09:14:41 51°13.957 2°55.554 336.8 1.1 336 9.5
2007-01-24 09:14:46 51°13.959 2°55.553 336.8 1.1 336 9.4
2007-01-24 09:14:51 51°13.96 2°55.552 336.8 1.1 336 9.4
2007-01-24 09:14:56 51°13.962 2°55.551 336.8 1.1 336 9.4
2007-01-24 09:15:01 51°13.963 2°55.55 336.8 1.1 337 9.4
2007-01-24 09:15:06 51°13.964 2°55.549 336.9 1.1 338 9.4
2007-01-24 09:15:11 51°13.966 2°55.548 337.1 1.1 337 9.4
2007-01-24 09:15:16 51°13.967 2°55.547 337.3 1 337 9.4
2007-01-24 09:15:21 51°13.968 2°55.547 337.5 1.1 337 9.4
2007-01-24 09:15:26 51°13.97 2°55.545 337.8 1.3 338 9.4
2007-01-24 09:15:31 51°13.972 2°55.544 337.9 1.5 337 9.4
2007-01-24 09:15:36 51°13.974 2°55.542 337.6 1.9 335 9.4
2007-01-24 09:15:41 51°13.977 2°55.541 337.3 2.2 335 9.4
2007-01-24 09:15:46 51°13.98 2°55.538 337 2.7 335 9.4
2007-01-24 09:15:51 51°13.984 2°55.536 336.9 3.1 335 9.4
2007-01-24 09:15:56 51°13.989 2°55.532 336.9 3.5 334 9.4
2007-01-24 09:16:01 51°13.994 2°55.528 337.1 4 335 9.3
2007-01-24 09:16:06 51°13.999 2°55.524 337.5 4.4 334 9.1
2007-01-24 09:16:11 51°14.005 2°55.519 337.5 4.8 334 9.4
2007-01-24 09:16:16 51°14.012 2°55.514 337.5 5.1 334 9.4
2007-01-24 09:16:21 51°14.019 2°55.509 337.6 5.5 334 9.4
2007-01-24 09:16:26 51°14.026 2°55.503 337.8 6 333 9.4
2007-01-24 09:16:31 51°14.034 2°55.497 337.5 6.4 332 9.4
2007-01-24 09:16:36 51°14.042 2°55.49 337.1 6.8 332 9.5
2007-01-24 09:16:41 51°14.051 2°55.482 336.7 7.2 333 4.6
2007-01-24 09:16:46 51°14.06 2°55.475 336.5 7.5 333 9.5
2007-01-24 09:16:51 51°14.07 2°55.467 336.7 7.8 335 9.4
2007-01-24 09:16:56 51°14.08 2°55.459 337.4 8.2 333 9.4
2007-01-24 09:17:01 51°14.091 2°55.451 337.2 8.6 333 9.4
2007-01-24 09:17:06 51°14.102 2°55.442 336.7 8.9 332 9.4
2007-01-24 09:17:11 51°14.113 2°55.432 336.1 9.2 331 9.3
2007-01-24 09:17:16 51°14.124 2°55.422 336 9.4 332 9.3
2007-01-24 09:17:21 51°14.136 2°55.412 336.3 9.6 332 9.3
2007-01-24 09:17:26 51°14.148 2°55.402 336.4 9.8 331 9.3
2007-01-24 09:17:31 51°14.16 2°55.391 335.9 9.9 331 9.3
2007-01-24 09:17:36 51°14.172 2°55.38 335.9 10 330 9.3
2007-01-24 09:17:41 51°14.184 2°55.368 334.8 10.1 328 9.3
2007-01-24 09:17:46 51°14.196 2°55.356 333 10.1 327 9.3
2007-01-24 09:17:51 51°14.207 2°55.344 331.8 10.2 326 9.3
2007-01-24 09:17:56 51°14.219 2°55.33 330.6 10.3 324 9.3
2007-01-24 09:18:01 51°14.23 2°55.316 328.8 10.3 322 9.3
2007-01-24 09:18:06 51°14.241 2°55.301 327.2 10.3 319 9.2
2007-01-24 09:18:11 51°14.251 2°55.285 324.4 10.4 316 9.2
2007-01-24 09:18:16 51°14.262 2°55.269 321.5 10.5 315 9.2
2007-01-24 09:18:21 51°14.272 2°55.252 319.7 10.6 314 9.2
2007-01-24 09:18:26 51°14.282 2°55.235 318.1 10.6 310 9.3
2007-01-24 09:18:31 51°14.291 2°55.216 315.7 10.7 309 9.4
2007-01-24 09:18:36 51°14.3 2°55.198 313.5 10.7 308 9.5
2007-01-24 09:18:41 51°14.309 2°55.179 312 10.9 308 9.5
2007-01-24 09:18:46 51°14.319 2°55.159 311.4 11 308 9.3
2007-01-24 09:18:51 51°14.328 2°55.14 312.3 11.2 309 9.2
2007-01-24 09:18:56 51°14.338 2°55.121 313.4 11.4 308 9
2007-01-24 09:19:01 51°14.348 2°55.101 313.4 11.4 308 9.2
2007-01-24 09:19:06 51°14.358 2°55.081 313 11.6 308 9.1
2007-01-24 09:19:11 51°14.368 2°55.061 312.7 11.6 309 8.7
2007-01-24 09:19:16 51°14.378 2°55.041 313.4 11.5 308 8.9
2007-01-24 09:19:21 51°14.388 2°55.02 314 11.7 308 8.8
2007-01-24 09:19:26 51°14.398 2°54.999 313.6 11.7 305 8.8
2007-01-24 09:19:31 51°14.407 2°54.978 312.4 11.9 304 9
2007-01-24 09:19:36 51°14.415 2°54.955 310.3 12 301 9
2007-01-24 09:19:41 51°14.423 2°54.932 307.6 12.1 297 9.1
2007-01-24 09:19:46 51°14.43 2°54.907 304.2 12.2 293 9.4
2007-01-24 09:19:51 51°14.435 2°54.881 300.6 12.3 290 9.2
2007-01-24 09:19:56 51°14.44 2°54.855 296.6 12.3 286 9.2
2007-01-24 09:20:01 51°14.444 2°54.829 292.9 12.4 282 9.3
2007-01-24 09:20:06 51°14.447 2°54.801 288.9 12.4 279 9.7
2007-01-24 09:20:11 51°14.449 2°54.774 285.9 12.4 277 9.2
2007-01-24 09:20:16 51°14.45 2°54.747 284 12.6 275 9.4
2007-01-24 09:20:21 51°14.451 2°54.719 281.9 12.7 272 9
2007-01-24 09:20:26 51°14.451 2°54.691 279.8 12.8 270 9.1
2007-01-24 09:20:31 51°14.45 2°54.663 277.2 12.8 267 9.5
2007-01-24 09:20:36 51°14.449 2°54.635 274.5 12.9 266 9.4
2007-01-24 09:20:41 51°14.446 2°54.607 271.1 12.9 263 9.4
2007-01-24 09:20:46 51°14.443 2°54.578 268.3 12.9 262 9.1
2007-01-24 09:20:51 51°14.439 2°54.55 266.2 13 258 9.2
2007-01-24 09:20:56 51°14.435 2°54.523 263.3 13 255 9.1
2007-01-24 09:21:01 51°14.429 2°54.495 259.7 13 252 9.2
2007-01-24 09:21:06 51°14.423 2°54.469 256.1 13 249 9.1
2007-01-24 09:21:11 51°14.416 2°54.442 253.4 13 247 8.6
2007-01-24 09:21:16 51°14.409 2°54.416 251.8 13 246 8.2
2007-01-24 09:21:21 51°14.401 2°54.39 250.1 13 246 8.1
2007-01-24 09:21:26 51°14.393 2°54.364 248.6 13 244 7.9
2007-01-24 09:21:31 51°14.385 2°54.338 248.2 12.9 244 7.9
2007-01-24 09:21:36 51°14.377 2°54.313 247.4 13 242 7.8
2007-01-24 09:21:41 51°14.369 2°54.287 246.7 13 243 7.9
2007-01-24 09:21:46 51°14.36 2°54.262 246 13.1 241 7.7
2007-01-24 09:21:51 51°14.352 2°54.236 245.4 13.1 244 7.8
2007-01-24 09:21:56 51°14.343 2°54.211 245.8 13.2 241 7.7
2007-01-24 09:22:01 51°14.334 2°54.185 245.4 13.1 242 7.7
2007-01-24 09:22:06 51°14.325 2°54.161 244.7 13.1 240 7.6
2007-01-24 09:22:11 51°14.316 2°54.136 243.2 13.2 239 7.6
2007-01-24 09:22:17 51°14.305 2°54.105 242.5 13.3 240 7.6
2007-01-24 09:22:22 51°14.295 2°54.08 242.4 13.2 239 7.5
2007-01-24 09:22:27 51°14.286 2°54.055 243.1 13.3 238 7.7
2007-01-24 09:22:32 51°14.277 2°54.03 242.2 13.3 241 7.8
2007-01-24 09:22:37 51°14.268 2°54.005 242.4 13.2 239 7.8
2007-01-24 09:22:42 51°14.259 2°53.979 242.8 13.2 241 7.7
2007-01-24 09:22:47 51°14.249 2°53.954 242.7 13.2 239 7.7
2007-01-24 09:22:52 51°14.24 2°53.929 243.1 13.2 240 7.9
2007-01-24 09:22:57 51°14.231 2°53.904 242.8 13.3 240 7.8
2007-01-24 09:23:02 51°14.222 2°53.878 243.1 13.3 240 7.7
2007-01-24 09:23:07 51°14.212 2°53.853 243.2 13.3 241 7.7
2007-01-24 09:23:12 51°14.203 2°53.827 243.4 13.2 240 7.7
2007-01-24 09:23:17 51°14.194 2°53.802 243.3 13.3 240 7.7
2007-01-24 09:23:22 51°14.185 2°53.776 243.6 13.3 241 7.7
2007-01-24 09:23:27 51°14.175 2°53.751 243.8 13.3 239 7.6
2007-01-24 09:23:32 51°14.166 2°53.725 242.4 13.3 241 7.7
2007-01-24 09:23:36 51°14.159 2°53.705 243.3 13.3 239 7.7
2007-01-24 09:23:41 51°14.15 2°53.679 243.1 13.4 241 7.7
2007-01-24 09:23:47 51°14.139 2°53.649 243.6 13.3 240 7.8
2007-01-24 09:23:52 51°14.129 2°53.624 243.9 13.3 239 7.9
2007-01-24 09:23:57 51°14.12 2°53.598 243.1 13.3 240 7.9
2007-01-24 09:24:02 51°14.11 2°53.573 243.2 13.3 238 7.8
2007-01-24 09:24:07 51°14.101 2°53.548 241.9 13.4 239 7.8
2007-01-24 09:24:12 51°14.091 2°53.522 242.6 13.3 239 8
2007-01-24 09:24:17 51°14.081 2°53.498 242.6 13.4 239 7.8
2007-01-24 09:24:22 51°14.072 2°53.472 241.5 13.3 239 7.9
2007-01-24 09:24:27 51°14.062 2°53.447 242 13.4 238 7.9
2007-01-24 09:24:32 51°14.053 2°53.422 241.7 13.3 240 7.9
2007-01-24 09:24:37 51°14.043 2°53.397 242.8 13.3 239 8
2007-01-24 09:24:42 51°14.034 2°53.372 242.8 13.3 239 7.9
2007-01-24 09:24:47 51°14.024 2°53.346 242.4 13.3 240 8
2007-01-24 09:24:52 51°14.015 2°53.321 242.6 13.4 238 8.1
2007-01-24 09:24:57 51°14.005 2°53.295 242.7 13.5 240 8
2007-01-24 09:25:02 51°13.995 2°53.27 242.4 13.5 239 8
2007-01-24 09:25:06 51°13.988 2°53.249 242.8 13.3 240 8.2
2007-01-24 09:25:12 51°13.977 2°53.219 243.1 13.4 239 8.1
2007-01-24 09:25:17 51°13.967 2°53.193 242.4 13.5 240 8.1
2007-01-24 09:25:22 51°13.957 2°53.168 243 13.5 239 8.1
2007-01-24 09:25:27 51°13.948 2°53.143 242.8 13.3 239 8.2
2007-01-24 09:25:32 51°13.938 2°53.118 242.3 13.5 238 8.1
2007-01-24 09:25:37 51°13.929 2°53.092 241.6 13.3 241 8.2
2007-01-24 09:25:42 51°13.918 2°53.068 243.6 13.5 235 8.3
2007-01-24 09:25:47 51°13.91 2°53.041 241.2 13.5 243 8.4
2007-01-24 09:25:52 51°13.9 2°53.016 243.3 13.3 237 8.2
2007-01-24 09:25:57 51°13.891 2°52.991 243.1 13.3 241 8.2
2007-01-24 09:26:02 51°13.881 2°52.965 242.6 13.5 237 8.2
2007-01-24 09:26:07 51°13.872 2°52.94 243.1 13.4 242 8.5
2007-01-24 09:26:12 51°13.862 2°52.915 243.2 13.2 238 8.5
2007-01-24 09:26:17 51°13.853 2°52.889 243.8 13.4 242 8.4
2007-01-24 09:26:22 51°13.844 2°52.864 242.7 13.4 239 8.3
2007-01-24 09:26:27 51°13.834 2°52.838 243.4 13.4 240 8.4
2007-01-24 09:26:32 51°13.825 2°52.812 243.1 13.3 241 8.3
2007-01-24 09:26:37 51°13.815 2°52.787 243.3 13.4 238 8.4
2007-01-24 09:26:42 51°13.807 2°52.761 243.1 13.3 242 8.4
2007-01-24 09:26:47 51°13.797 2°52.737 243 13.4 237 8.5
2007-01-24 09:26:52 51°13.788 2°52.711 242.9 13.3 242 8.5
2007-01-24 09:26:57 51°13.778 2°52.686 243.1 13.3 236 8.5
2007-01-24 09:27:02 51°13.769 2°52.66 243 13.3 242 8.5
2007-01-24 09:27:07 51°13.759 2°52.636 243 13.4 237 8.6
2007-01-24 09:27:12 51°13.75 2°52.61 242.7 13.3 243 8.5
2007-01-24 09:27:17 51°13.739 2°52.586 242.9 13.5 233 8.5
2007-01-24 09:27:22 51°13.731 2°52.559 241.3 13.3 245 8.5
2007-01-24 09:27:27 51°13.721 2°52.535 243.9 13.3 235 8.5
2007-01-24 09:27:32 51°13.712 2°52.508 242.8 13.7 243 8.5
2007-01-24 09:27:37 51°13.701 2°52.482 242.6 13.8 237 8.5
2007-01-24 09:27:42 51°13.693 2°52.456 243.5 13.7 242 8.6
2007-01-24 09:27:47 51°13.682 2°52.43 243.1 14 236 8.7
2007-01-24 09:27:52 51°13.674 2°52.402 242.9 14 244 8.6
2007-01-24 09:27:57 51°13.662 2°52.376 244 14.2 236 8.6
2007-01-24 09:28:02 51°13.653 2°52.348 243 14.2 243 8.6
2007-01-24 09:28:07 51°13.643 2°52.321 243.9 14.2 238 8.7
2007-01-24 09:28:12 51°13.633 2°52.294 243.9 14.4 240 8.6
2007-01-24 09:28:17 51°13.623 2°52.266 242.6 14.4 240 8.6
2007-01-24 09:28:22 51°13.613 2°52.238 245.3 14.5 241 8.6
2007-01-24 09:28:27 51°13.604 2°52.21 243 14.5 242 8.6
2007-01-24 09:28:32 51°13.593 2°52.182 244.5 14.6 241 8.5
2007-01-24 09:28:37 51°13.584 2°52.154 243.8 14.5 241 8.5
2007-01-24 09:28:42 51°13.574 2°52.126 244.6 14.6 241 8.6
2007-01-24 09:28:47 51°13.564 2°52.098 244.3 14.7 240 8.5
2007-01-24 09:28:52 51°13.553 2°52.07 243.8 14.8 240 8.6
2007-01-24 09:28:57 51°13.544 2°52.041 242.7 14.6 241 8.7
2007-01-24 09:29:02 51°13.532 2°52.014 243.8 14.7 238 8.7
2007-01-24 09:29:07 51°13.523 2°51.985 242.4 14.6 242 8.7
2007-01-24 09:29:12 51°13.512 2°51.958 243.7 14.7 239 8.7
2007-01-24 09:29:17 51°13.503 2°51.929 242.3 14.8 241 8.7
2007-01-24 09:29:22 51°13.492 2°51.901 243.4 14.9 240 8.6
2007-01-24 09:29:27 51°13.483 2°51.872 243.3 14.8 240 8.9
2007-01-24 09:29:32 51°13.473 2°51.843 245 14.7 243 8.6
2007-01-24 09:29:37 51°13.463 2°51.815 243.7 14.8 239 8.7
2007-01-24 09:29:42 51°13.454 2°51.786 244.6 14.8 244 8.7
2007-01-24 09:29:46 51°13.445 2°51.764 244.7 14.9 239 8.8
2007-01-24 09:29:52 51°13.434 2°51.729 243.9 14.8 243 8.8
2007-01-24 09:29:57 51°13.423 2°51.7 245.2 14.9 240 8.9
2007-01-24 09:30:02 51°13.414 2°51.671 244.5 14.9 243 8.8
2007-01-24 09:30:07 51°13.403 2°51.643 244.7 15 238 8.8
2007-01-24 09:30:12 51°13.394 2°51.613 243.7 14.9 244 8.7
2007-01-24 09:30:17 51°13.383 2°51.586 244.7 14.7 237 8.8
2007-01-24 09:30:22 51°13.374 2°51.557 243.8 14.9 243 8.8
2007-01-24 09:30:27 51°13.363 2°51.529 243.9 15 239 8.8
2007-01-24 09:30:32 51°13.353 2°51.499 243.6 14.8 242 8.8
2007-01-24 09:30:37 51°13.343 2°51.471 243.8 14.8 240 8.7
2007-01-24 09:30:42 51°13.333 2°51.442 243.8 14.8 242 8.8
2007-01-24 09:30:47 51°13.323 2°51.414 244.5 14.8 240 8.8
2007-01-24 09:30:52 51°13.314 2°51.385 244.3 14.7 243 8.8
2007-01-24 09:30:57 51°13.302 2°51.358 244 14.9 237 8.7
2007-01-24 09:31:02 51°13.293 2°51.328 242.5 14.8 242 8.7
2007-01-24 09:31:07 51°13.281 2°51.301 243.8 14.8 238 8.8
2007-01-24 09:31:12 51°13.272 2°51.272 242.1 14.8 240 8.8
2007-01-24 09:31:17 51°13.262 2°51.244 242.7 14.8 241 8.8
2007-01-24 09:31:22 51°13.252 2°51.215 243.9 14.8 242 8.9
2007-01-24 09:31:27 51°13.243 2°51.186 244.5 14.7 242 8.9
2007-01-24 09:31:32 51°13.233 2°51.157 245.3 14.8 242 9
2007-01-24 09:31:37 51°13.223 2°51.128 245.3 14.8 242 8.9
2007-01-24 09:31:42 51°13.213 2°51.1 245.3 14.9 241 8.9
2007-01-24 09:31:47 51°13.204 2°51.07 244.8 14.9 241 9
2007-01-24 09:31:52 51°13.194 2°51.042 244.7 14.8 243 9
2007-01-24 09:31:57 51°13.184 2°51.014 245.3 14.7 240 9
2007-01-24 09:32:02 51°13.174 2°50.985 244.4 14.7 241 9
2007-01-24 09:32:06 51°13.166 2°50.962 243.8 14.8 240 9
2007-01-24 09:32:12 51°13.154 2°50.928 243.5 14.9 242 9
2007-01-24 09:32:17 51°13.143 2°50.9 243.3 14.8 239 9.1